Pagina principale
METAR-TAF:

METAR-TAF

Aeroporti :

Grenchen, Svizzera

latitudine: 47-10-53N, longitudine: 007-24-59E, altezza: 430 m

Osservazione

Il bollettino è stato emesso 31 minuti fa, alle 18:50 UTC
Vento 6 kt da nord/nord-est
Temperature 17°C
Umidità 42%
Pressione 1023 hPa
Visibilità 10 km o più
nessuna nube inferiore a 1500 m e nessun cumulonembo

METAR: LSZG 231850Z AUTO 03006KT CAVOK 17/04 Q1023

Ora: 21:21 (19:21 UTC)

Previsione

Il bollettino è stato emesso 4 ore e 56 minuti fa, alle 14:25 UTC
Previsione valida dal 23 alle 15 UTC al 23 alle 24 UTC
Vento 8 kt da nord-est
Visibilità 10 km o più
nessuna nube inferiore a 1500 m e nessun cumulonembo
Probabilità 40% :
Temporaneamente
dal 23 alle 15 UTC al 23 alle 20 UTC
Vento 15 kt da nord/nord-ovest con raffiche fino a 28 kt

TAF: LSZG 231425Z 2315/2324 04008KT CAVOK PROB40 TEMPO 2315/2320 34015G28KT

Osservazioni e previsioni meteorologiche di più di 4000 aeroporti (messaggi METAR e TAF).

Le stazioni disponibili sono rappresentate dai dischi gialli e rossi sulla carta.

Puntare il mouse per vedere il nome della stazione.

Clicca sopra per visualizzare le osservazioni e previsioni meteorologiche.

Per cambiare la mappa : fare clic sui pulsanti verdi con una croce nera per ingrandire, il pulsante verde con un trattino per diminuire, o sulla freccia verde per le mappe adiacenti.


METAR-TAF: